createdAt,value
2023-05-24T00:00:30.276Z,13.89
2023-05-24T00:01:30.314Z,13.75
2023-05-24T00:02:30.374Z,13.35
2023-05-24T00:03:30.361Z,13.22
2023-05-24T00:04:30.548Z,13.10
2023-05-24T00:05:30.305Z,13.18
2023-05-24T00:06:30.268Z,13.40
2023-05-24T00:09:30.317Z,13.80
2023-05-24T00:10:30.281Z,12.66
2023-05-24T00:12:30.296Z,14.07
2023-05-24T00:13:30.300Z,13.81
2023-05-24T00:14:30.276Z,13.18
2023-05-24T00:16:30.338Z,13.97
2023-05-24T00:17:30.434Z,14.46
2023-05-24T00:18:30.271Z,13.52
2023-05-24T00:19:30.319Z,12.87
2023-05-24T00:20:33.459Z,14.18
2023-05-24T00:21:30.281Z,14.40
2023-05-24T00:22:30.319Z,14.19
2023-05-24T00:24:30.312Z,14.02
2023-05-24T00:26:30.370Z,14.02
2023-05-24T00:27:30.370Z,14.25
2023-05-24T00:28:30.361Z,13.30
2023-05-24T00:29:32.315Z,13.44
2023-05-24T00:30:30.348Z,13.87
2023-05-24T00:31:30.362Z,14.74
2023-05-24T00:32:30.381Z,14.33
2023-05-24T00:34:30.330Z,14.05
2023-05-24T00:35:30.330Z,14.69
2023-05-24T00:36:30.383Z,13.84
2023-05-24T00:37:30.350Z,13.56
2023-05-24T00:38:30.393Z,14.51
2023-05-24T00:39:30.334Z,14.32
2023-05-24T00:40:30.391Z,13.99
2023-05-24T00:41:30.383Z,15.05
2023-05-24T00:42:30.316Z,14.67
2023-05-24T00:43:30.359Z,13.39
2023-05-24T00:44:30.388Z,14.05
2023-05-24T00:45:32.996Z,14.53
2023-05-24T00:47:30.468Z,13.99
2023-05-24T00:48:30.377Z,13.78
2023-05-24T00:49:30.420Z,14.09
2023-05-24T00:50:30.401Z,14.04
2023-05-24T00:51:30.445Z,14.75
2023-05-24T00:52:30.417Z,14.36
2023-05-24T00:53:30.366Z,15.05
2023-05-24T00:54:30.397Z,14.14
2023-05-24T00:55:30.394Z,14.15
2023-05-24T00:56:30.393Z,14.97
2023-05-24T00:57:33.854Z,14.18
2023-05-24T00:58:30.395Z,14.86
2023-05-24T00:59:30.436Z,15.09
2023-05-24T01:00:30.462Z,13.33
2023-05-24T01:01:30.484Z,13.89
2023-05-24T01:02:30.519Z,14.81
2023-05-24T01:03:30.535Z,12.79
2023-05-24T01:04:30.424Z,13.88
2023-05-24T01:05:30.442Z,13.93
2023-05-24T01:06:30.389Z,13.64
2023-05-24T01:07:30.482Z,14.37
2023-05-24T01:08:30.450Z,14.29
2023-05-24T01:09:30.450Z,13.76
2023-05-24T01:10:30.459Z,14.28
2023-05-24T01:11:30.403Z,14.80
2023-05-24T01:12:30.459Z,14.69
2023-05-24T01:14:30.482Z,14.69
2023-05-24T01:15:30.475Z,14.96
2023-05-24T01:16:30.643Z,14.97
2023-05-24T01:17:30.523Z,15.57
2023-05-24T01:18:30.525Z,15.35
2023-05-24T01:19:30.471Z,15.26
2023-05-24T01:21:30.455Z,14.03
2023-05-24T01:23:30.505Z,14.99
2023-05-24T01:24:30.458Z,14.31
2023-05-24T01:25:30.515Z,14.81
2023-05-24T01:26:30.485Z,14.71
2023-05-24T01:27:30.517Z,14.07
2023-05-24T01:28:30.520Z,13.92
2023-05-24T01:30:30.526Z,14.37
2023-05-24T01:31:30.543Z,14.90
2023-05-24T01:32:30.547Z,15.48
2023-05-24T01:33:30.515Z,15.30
2023-05-24T01:34:34.309Z,14.72
2023-05-24T01:35:30.497Z,14.63
2023-05-24T01:36:30.516Z,14.62
2023-05-24T01:37:30.529Z,15.72
2023-05-24T01:38:30.533Z,16.27
2023-05-24T01:39:30.562Z,14.83
2023-05-24T01:40:30.525Z,16.55
2023-05-24T01:41:30.503Z,15.31
2023-05-24T01:42:30.507Z,15.02
2023-05-24T01:43:30.563Z,15.50
2023-05-24T01:44:30.569Z,15.42
2023-05-24T01:45:30.489Z,14.50
2023-05-24T01:46:30.557Z,16.26
2023-05-24T01:47:30.587Z,15.72
2023-05-24T01:48:30.567Z,15.43
2023-05-24T01:49:30.535Z,15.15
2023-05-24T01:50:30.533Z,14.05
2023-05-24T01:53:30.578Z,14.79
2023-05-24T01:54:30.588Z,14.90
2023-05-24T01:55:30.518Z,15.33
2023-05-24T01:56:30.556Z,14.04
2023-05-24T01:57:30.549Z,14.56
2023-05-24T01:58:30.554Z,15.88
2023-05-24T01:59:30.604Z,14.99
2023-05-24T02:00:30.599Z,15.68
2023-05-24T02:01:30.585Z,15.36
2023-05-24T02:02:30.628Z,15.29
2023-05-24T02:03:30.598Z,15.35
2023-05-24T02:05:30.576Z,16.18
2023-05-24T02:06:30.576Z,15.12
2023-05-24T02:07:30.580Z,14.65
2023-05-24T02:09:30.599Z,14.93
2023-05-24T02:10:30.589Z,16.00
2023-05-24T02:11:34.748Z,15.62
2023-05-24T02:12:30.591Z,15.04
2023-05-24T02:13:30.597Z,15.27
2023-05-24T02:14:30.637Z,15.00
2023-05-24T02:15:30.674Z,15.35
2023-05-24T02:16:30.638Z,15.71
2023-05-24T02:17:30.619Z,15.41
2023-05-24T02:18:30.592Z,14.96
2023-05-24T02:19:30.627Z,15.78
2023-05-24T02:20:30.747Z,14.78
2023-05-24T02:23:30.653Z,16.04
2023-05-24T02:24:30.647Z,15.90
2023-05-24T02:25:30.612Z,14.66
2023-05-24T02:26:30.652Z,15.77
2023-05-24T02:27:30.648Z,16.02
2023-05-24T02:28:30.658Z,14.66
2023-05-24T02:29:30.607Z,15.26
2023-05-24T02:30:30.684Z,15.15
2023-05-24T02:32:30.731Z,15.99
2023-05-24T02:33:30.659Z,15.33
2023-05-24T02:34:30.643Z,16.25
2023-05-24T02:35:30.675Z,15.83
2023-05-24T02:36:30.666Z,15.04
2023-05-24T02:37:30.624Z,16.46
2023-05-24T02:38:30.653Z,15.21
2023-05-24T02:39:30.699Z,15.40
2023-05-24T02:40:30.716Z,14.88
2023-05-24T02:42:30.631Z,15.29
2023-05-24T02:43:30.636Z,15.47
2023-05-24T02:44:30.731Z,14.70
2023-05-24T02:45:30.722Z,14.26
2023-05-24T02:46:30.769Z,14.73
2023-05-24T02:47:30.745Z,16.45
2023-05-24T02:48:35.199Z,14.54
2023-05-24T02:49:30.695Z,15.65
2023-05-24T02:50:30.668Z,15.50
2023-05-24T02:51:30.745Z,16.05
2023-05-24T02:52:30.734Z,16.57
2023-05-24T02:53:30.704Z,15.10
2023-05-24T02:54:30.704Z,15.58
2023-05-24T02:55:30.702Z,16.31
2023-05-24T02:56:30.704Z,14.87
2023-05-24T02:57:30.713Z,16.86
2023-05-24T02:58:30.693Z,14.54
2023-05-24T02:59:30.734Z,15.89
2023-05-24T03:00:30.737Z,15.30
2023-05-24T03:01:30.776Z,16.05
2023-05-24T03:02:30.822Z,15.44
2023-05-24T03:03:30.840Z,15.30
2023-05-24T03:05:30.771Z,15.01
2023-05-24T03:06:30.741Z,15.93
2023-05-24T03:07:30.751Z,16.43
2023-05-24T03:08:30.708Z,15.67
2023-05-24T03:09:30.764Z,15.80
2023-05-24T03:10:30.746Z,15.55
2023-05-24T03:11:30.751Z,15.06
2023-05-24T03:12:30.785Z,15.59
2023-05-24T03:13:30.720Z,14.36
2023-05-24T03:14:30.746Z,14.21
2023-05-24T03:16:30.821Z,14.78
2023-05-24T03:17:30.826Z,14.63
2023-05-24T03:18:30.715Z,15.26
2023-05-24T03:20:30.849Z,15.34
2023-05-24T03:21:30.745Z,15.61
2023-05-24T03:22:30.745Z,14.61
2023-05-24T03:23:30.790Z,16.65
2023-05-24T03:24:30.757Z,15.72
2023-05-24T03:25:35.660Z,16.00
2023-05-24T03:26:30.800Z,14.66
2023-05-24T03:27:30.775Z,15.46
2023-05-24T03:28:30.818Z,16.06
2023-05-24T03:30:30.768Z,16.38
2023-05-24T03:32:30.858Z,17.06
2023-05-24T03:33:30.797Z,15.39
2023-05-24T03:34:30.797Z,15.33
2023-05-24T03:35:30.768Z,15.17
2023-05-24T03:36:30.781Z,14.73
2023-05-24T03:37:30.785Z,16.47
2023-05-24T03:39:30.823Z,14.85
2023-05-24T03:40:30.852Z,15.35
2023-05-24T03:41:30.849Z,14.83
2023-05-24T03:43:30.873Z,16.71
2023-05-24T03:44:30.867Z,17.29
2023-05-24T03:45:39.093Z,15.73
2023-05-24T03:47:30.848Z,16.70
2023-05-24T03:48:30.835Z,16.44
2023-05-24T03:49:31.041Z,16.81
2023-05-24T03:50:30.858Z,16.05
2023-05-24T03:51:30.847Z,16.23
2023-05-24T03:52:30.836Z,16.64
2023-05-24T03:53:30.820Z,15.71
2023-05-24T03:54:30.873Z,16.03
2023-05-24T03:55:30.820Z,16.99
2023-05-24T03:56:30.851Z,15.66
2023-05-24T03:57:30.903Z,15.26
2023-05-24T03:58:30.899Z,16.00
2023-05-24T03:59:31.061Z,16.34
2023-05-24T04:00:30.859Z,15.71
2023-05-24T04:01:34.498Z,16.80
2023-05-24T04:02:31.003Z,16.02
2023-05-24T04:03:30.961Z,15.60
2023-05-24T04:04:30.933Z,16.60
2023-05-24T04:05:30.893Z,16.79
2023-05-24T04:06:30.914Z,16.58
2023-05-24T04:08:30.871Z,16.71
2023-05-24T04:09:30.882Z,15.45
2023-05-24T04:10:30.913Z,16.35
2023-05-24T04:11:30.876Z,16.29
2023-05-24T04:13:30.912Z,15.23
2023-05-24T04:14:30.914Z,15.62
2023-05-24T04:15:30.895Z,15.45
2023-05-24T04:16:30.960Z,16.46
2023-05-24T04:17:31.066Z,16.60
2023-05-24T04:18:30.962Z,15.70
2023-05-24T04:19:30.950Z,15.77
2023-05-24T04:20:30.952Z,15.49
2023-05-24T04:22:30.928Z,15.88
2023-05-24T04:24:30.976Z,14.65
2023-05-24T04:25:30.954Z,14.75
2023-05-24T04:26:30.895Z,15.79
2023-05-24T04:27:30.912Z,15.66
2023-05-24T04:28:30.945Z,15.01
2023-05-24T04:29:30.903Z,15.69
2023-05-24T04:30:30.956Z,16.51
2023-05-24T04:31:30.958Z,15.21
2023-05-24T04:34:30.919Z,15.15
2023-05-24T04:35:30.978Z,14.61
2023-05-24T04:36:31.575Z,14.48
2023-05-24T04:38:31.012Z,14.99
2023-05-24T04:39:30.938Z,14.61
2023-05-24T04:40:30.966Z,15.10
2023-05-24T04:41:30.977Z,14.25
2023-05-24T04:42:30.962Z,15.39
2023-05-24T04:43:31.004Z,14.16
2023-05-24T04:44:30.973Z,14.59
2023-05-24T04:45:31.020Z,13.74
2023-05-24T04:46:30.995Z,13.34
2023-05-24T04:47:31.037Z,14.31
2023-05-24T04:48:31.006Z,14.21
2023-05-24T04:49:30.994Z,14.48
2023-05-24T04:50:30.979Z,14.59
2023-05-24T04:51:31.005Z,14.70
2023-05-24T04:52:31.028Z,14.70
2023-05-24T04:53:31.071Z,15.50
2023-05-24T04:54:31.029Z,14.40
2023-05-24T04:55:30.996Z,13.39
2023-05-24T04:56:31.037Z,14.79
2023-05-24T04:57:30.962Z,14.05
2023-05-24T04:58:30.989Z,13.86
2023-05-24T04:59:31.029Z,14.02
2023-05-24T05:00:31.011Z,13.95
2023-05-24T05:01:31.103Z,13.53
2023-05-24T05:02:31.121Z,13.82
2023-05-24T05:03:31.072Z,13.23
2023-05-24T05:04:31.025Z,14.05
2023-05-24T05:05:31.085Z,15.52
2023-05-24T05:06:31.060Z,13.86
2023-05-24T05:07:31.031Z,14.64
2023-05-24T05:08:31.015Z,13.32
2023-05-24T05:09:31.041Z,13.86
2023-05-24T05:11:31.036Z,14.17
2023-05-24T05:13:31.955Z,14.33
2023-05-24T05:14:31.051Z,13.92
2023-05-24T05:15:31.038Z,14.69
2023-05-24T05:16:31.087Z,14.54
2023-05-24T05:17:31.057Z,14.06
2023-05-24T05:18:31.080Z,14.15
2023-05-24T05:19:31.083Z,14.91
2023-05-24T05:20:31.132Z,14.22
2023-05-24T05:21:31.064Z,15.55
2023-05-24T05:22:31.404Z,13.73
2023-05-24T05:23:31.109Z,14.18
2023-05-24T05:24:31.075Z,13.77
2023-05-24T05:25:31.076Z,14.19
2023-05-24T05:26:31.087Z,14.04
2023-05-24T05:27:31.078Z,14.52
2023-05-24T05:28:31.078Z,13.54
2023-05-24T05:29:31.068Z,15.09
2023-05-24T05:30:31.118Z,14.53
2023-05-24T05:31:31.135Z,14.10
2023-05-24T05:32:31.215Z,14.19
2023-05-24T05:33:31.144Z,13.88
2023-05-24T05:34:31.110Z,14.18
2023-05-24T05:35:31.099Z,14.34
2023-05-24T05:36:31.148Z,14.19
2023-05-24T05:37:31.135Z,12.88
2023-05-24T05:38:31.142Z,13.94
2023-05-24T05:39:31.136Z,12.76
2023-05-24T05:40:31.166Z,13.53
2023-05-24T05:41:31.132Z,13.62
2023-05-24T05:42:31.129Z,14.51
2023-05-24T05:43:31.142Z,12.50
2023-05-24T05:44:31.132Z,13.49
2023-05-24T05:45:31.090Z,13.40
2023-05-24T05:46:31.205Z,13.53
2023-05-24T05:47:31.174Z,13.50
2023-05-24T05:48:31.176Z,13.04
2023-05-24T05:49:31.174Z,12.95
2023-05-24T05:50:32.377Z,13.12
2023-05-24T05:51:31.194Z,13.15
2023-05-24T05:52:31.188Z,12.68
2023-05-24T05:53:31.166Z,13.38
2023-05-24T05:54:31.124Z,13.32
2023-05-24T05:55:31.151Z,12.38
2023-05-24T05:56:31.185Z,13.32
2023-05-24T05:57:31.197Z,13.42
2023-05-24T05:58:31.160Z,12.44
2023-05-24T05:59:31.169Z,12.34
2023-05-24T06:00:31.289Z,13.43
2023-05-24T06:02:31.283Z,13.15
2023-05-24T06:03:31.332Z,13.44
2023-05-24T06:04:31.250Z,12.68
2023-05-24T06:05:31.211Z,13.15
2023-05-24T06:08:31.192Z,12.69
2023-05-24T06:09:31.188Z,12.82
2023-05-24T06:10:31.207Z,12.20
2023-05-24T06:11:31.159Z,12.22
2023-05-24T06:12:31.166Z,12.18
2023-05-24T06:13:31.223Z,12.47
2023-05-24T06:14:31.254Z,11.86
2023-05-24T06:15:31.275Z,11.67
2023-05-24T06:17:31.302Z,11.72
2023-05-24T06:18:31.244Z,12.47
2023-05-24T06:19:31.207Z,12.03
2023-05-24T06:20:31.237Z,11.66
2023-05-24T06:22:31.240Z,13.23
2023-05-24T06:23:31.206Z,11.73
2023-05-24T06:24:31.227Z,11.08
2023-05-24T06:25:31.237Z,12.19
2023-05-24T06:26:31.239Z,12.90
2023-05-24T06:27:32.652Z,10.83
2023-05-24T06:28:31.225Z,12.36
2023-05-24T06:29:31.293Z,11.77
2023-05-24T06:30:31.433Z,12.89
2023-05-24T06:31:31.293Z,10.63
2023-05-24T06:32:31.271Z,11.95
2023-05-24T06:33:31.248Z,11.54
2023-05-24T06:34:31.280Z,11.85
2023-05-24T06:37:31.287Z,11.04
2023-05-24T06:38:31.293Z,11.03
2023-05-24T06:39:31.265Z,11.37
2023-05-24T06:40:31.310Z,10.58
2023-05-24T06:41:31.310Z,10.14
2023-05-24T06:42:31.249Z,11.16
2023-05-24T06:43:31.296Z,11.18
2023-05-24T06:44:31.234Z,9.91
2023-05-24T06:45:31.286Z,9.93
2023-05-24T06:46:31.303Z,10.42
2023-05-24T06:47:31.302Z,10.06
2023-05-24T06:48:31.388Z,10.34
2023-05-24T06:49:31.345Z,10.40
2023-05-24T06:50:31.268Z,11.14
2023-05-24T06:51:31.301Z,9.92
2023-05-24T06:52:31.270Z,10.55
2023-05-24T06:53:31.334Z,10.02
2023-05-24T06:54:31.275Z,9.95
2023-05-24T06:55:31.320Z,9.49
2023-05-24T06:56:31.352Z,10.33
2023-05-24T06:57:31.338Z,9.81
2023-05-24T06:58:31.306Z,10.00
2023-05-24T06:59:31.333Z,10.07
2023-05-24T07:00:31.355Z,10.52
2023-05-24T07:01:31.375Z,11.06
2023-05-24T07:02:31.403Z,9.85
2023-05-24T07:04:32.968Z,9.30
2023-05-24T07:05:31.358Z,10.18
2023-05-24T07:06:31.396Z,10.73
2023-05-24T07:07:31.364Z,9.96
2023-05-24T07:08:31.317Z,10.49
2023-05-24T07:09:31.404Z,10.87
2023-05-24T07:10:31.396Z,10.73
2023-05-24T07:11:31.373Z,11.12
2023-05-24T07:12:31.376Z,10.07
2023-05-24T07:13:31.395Z,10.12
2023-05-24T07:14:31.417Z,11.83
2023-05-24T07:15:31.374Z,11.99
2023-05-24T07:16:31.343Z,11.22
2023-05-24T07:17:31.387Z,14.08
2023-05-24T07:18:31.399Z,18.72
2023-05-24T07:19:31.374Z,13.59
2023-05-24T07:20:31.444Z,12.02
2023-05-24T07:21:31.401Z,15.42
2023-05-24T07:22:31.384Z,14.53
2023-05-24T07:23:31.433Z,10.94
2023-05-24T07:24:31.375Z,10.24
2023-05-24T07:25:31.439Z,10.84
2023-05-24T07:26:31.428Z,10.60
2023-05-24T07:27:31.388Z,10.16
2023-05-24T07:28:31.390Z,9.80
2023-05-24T07:29:31.395Z,10.89
2023-05-24T07:30:32.609Z,9.89
2023-05-24T07:31:31.449Z,8.70
2023-05-24T07:32:31.443Z,9.29
2023-05-24T07:33:31.461Z,9.08
2023-05-24T07:34:31.424Z,9.58
2023-05-24T07:35:31.422Z,8.38
2023-05-24T07:37:31.425Z,9.47
2023-05-24T07:38:31.461Z,8.77
2023-05-24T07:40:31.416Z,8.74
2023-05-24T07:41:33.189Z,9.09
2023-05-24T07:42:31.423Z,8.98
2023-05-24T07:43:31.436Z,8.91
2023-05-24T07:44:31.430Z,8.92
2023-05-24T07:45:31.442Z,9.66
2023-05-24T07:46:31.486Z,9.26
2023-05-24T07:47:31.481Z,10.74
2023-05-24T07:48:31.456Z,9.30
2023-05-24T07:49:31.429Z,9.07
2023-05-24T07:50:31.440Z,8.99
2023-05-24T07:51:31.467Z,9.53
2023-05-24T07:52:31.452Z,9.31
2023-05-24T07:53:31.519Z,9.20
2023-05-24T07:54:31.507Z,9.77
2023-05-24T07:55:31.446Z,9.73
2023-05-24T07:56:31.485Z,9.63
2023-05-24T07:57:31.532Z,9.53
2023-05-24T07:58:31.432Z,9.56
2023-05-24T07:59:31.483Z,9.84
2023-05-24T08:00:31.458Z,10.01
2023-05-24T08:01:31.505Z,9.18
2023-05-24T08:02:31.554Z,9.24
2023-05-24T08:03:31.483Z,9.08
2023-05-24T08:04:31.514Z,8.78
2023-05-24T08:05:31.481Z,8.98
2023-05-24T08:06:31.489Z,8.85
2023-05-24T08:07:31.531Z,9.61
2023-05-24T08:08:31.500Z,8.87
2023-05-24T08:09:31.528Z,9.40
2023-05-24T08:11:31.504Z,9.42
2023-05-24T08:12:31.557Z,9.86
2023-05-24T08:15:31.540Z,9.57
2023-05-24T08:16:31.519Z,8.93
2023-05-24T08:17:31.654Z,9.74
2023-05-24T08:18:33.406Z,9.47
2023-05-24T08:19:31.578Z,9.46
2023-05-24T08:20:31.591Z,9.24
2023-05-24T08:21:31.504Z,10.64
2023-05-24T08:22:31.526Z,10.32
2023-05-24T08:23:31.537Z,9.60
2023-05-24T08:24:31.501Z,9.94
2023-05-24T08:25:31.574Z,10.04
2023-05-24T08:26:31.566Z,10.08
2023-05-24T08:27:31.558Z,9.91
2023-05-24T08:28:31.592Z,10.43
2023-05-24T08:29:31.518Z,10.94
2023-05-24T08:30:31.557Z,10.48
2023-05-24T08:31:31.588Z,10.31
2023-05-24T08:32:31.581Z,10.25
2023-05-24T08:33:31.566Z,10.27
2023-05-24T08:34:31.572Z,9.80
2023-05-24T08:36:31.584Z,9.94
2023-05-24T08:37:31.778Z,9.66
2023-05-24T08:38:31.550Z,10.67
2023-05-24T08:39:31.584Z,10.26
2023-05-24T08:40:31.583Z,10.68
2023-05-24T08:41:31.572Z,10.13
2023-05-24T08:42:31.592Z,10.53
2023-05-24T08:43:32.881Z,9.73
2023-05-24T08:44:31.572Z,9.87
2023-05-24T08:45:31.623Z,9.79
2023-05-24T08:46:31.674Z,10.15
2023-05-24T08:47:31.612Z,9.33
2023-05-24T08:48:31.746Z,9.52
2023-05-24T08:49:33.773Z,9.19
2023-05-24T08:50:31.622Z,9.50
2023-05-24T08:51:31.643Z,9.65
2023-05-24T08:53:31.639Z,9.03
2023-05-24T08:54:31.610Z,9.29
2023-05-24T08:55:39.663Z,9.67
2023-05-24T08:56:31.688Z,10.34
2023-05-24T08:57:31.618Z,9.90
2023-05-24T08:58:31.621Z,8.66
2023-05-24T08:59:31.652Z,9.04
2023-05-24T09:01:32.786Z,9.36
2023-05-24T09:02:31.670Z,8.90
2023-05-24T09:03:31.754Z,8.84
2023-05-24T09:04:31.633Z,8.83
2023-05-24T09:05:31.627Z,9.82
2023-05-24T09:06:31.678Z,8.63
2023-05-24T09:07:33.130Z,10.10
2023-05-24T09:08:31.668Z,9.24
2023-05-24T09:09:31.668Z,9.58
2023-05-24T09:10:45.196Z,9.15
2023-05-24T09:11:31.685Z,9.67
2023-05-24T09:12:38.100Z,9.01
2023-05-24T09:14:31.701Z,8.76
2023-05-24T09:15:31.702Z,8.90
2023-05-24T09:16:31.674Z,8.99
2023-05-24T09:17:33.594Z,9.03
2023-05-24T09:18:31.649Z,8.41
2023-05-24T09:19:31.689Z,8.60
2023-05-24T09:20:31.741Z,8.99
2023-05-24T09:21:31.683Z,8.46
2023-05-24T09:22:31.713Z,8.73
2023-05-24T09:23:31.679Z,8.81
2023-05-24T09:24:31.677Z,8.94
2023-05-24T09:25:31.709Z,8.25
2023-05-24T09:26:31.713Z,8.86
2023-05-24T09:27:31.706Z,9.50
2023-05-24T09:28:31.696Z,9.20
2023-05-24T09:29:31.707Z,8.34
2023-05-24T09:30:31.742Z,8.58
2023-05-24T09:31:31.715Z,8.86
2023-05-24T09:33:31.716Z,8.94
2023-05-24T09:34:31.722Z,8.93
2023-05-24T09:35:31.740Z,8.22
2023-05-24T09:36:31.677Z,9.36
2023-05-24T09:37:32.993Z,8.40
2023-05-24T09:38:31.692Z,9.40
2023-05-24T09:39:31.682Z,8.98
2023-05-24T09:40:31.743Z,9.38
2023-05-24T09:41:31.758Z,9.13
2023-05-24T09:42:31.733Z,8.73
2023-05-24T09:43:31.723Z,8.55
2023-05-24T09:44:31.701Z,8.83
2023-05-24T09:45:31.756Z,8.51
2023-05-24T09:46:31.761Z,8.98
2023-05-24T09:47:31.817Z,8.95
2023-05-24T09:48:31.743Z,9.00
2023-05-24T09:50:31.771Z,9.12
2023-05-24T09:51:31.796Z,8.38
2023-05-24T09:52:33.250Z,9.38
2023-05-24T09:53:31.761Z,9.91
2023-05-24T09:54:31.777Z,8.43
2023-05-24T09:55:31.816Z,8.67
2023-05-24T09:57:31.788Z,8.92
2023-05-24T09:58:31.779Z,8.69
2023-05-24T09:59:31.788Z,9.67
2023-05-24T10:01:31.853Z,9.54
2023-05-24T10:02:41.552Z,9.39
2023-05-24T10:03:31.986Z,9.61
2023-05-24T10:04:31.842Z,9.40
2023-05-24T10:05:31.792Z,9.89
2023-05-24T10:06:31.827Z,8.68
2023-05-24T10:07:31.758Z,11.12
2023-05-24T10:08:31.810Z,10.74
2023-05-24T10:09:31.841Z,9.69
2023-05-24T10:10:31.800Z,11.37
2023-05-24T10:11:31.825Z,9.40
2023-05-24T10:12:31.852Z,9.45
2023-05-24T10:13:31.836Z,9.82
2023-05-24T10:14:31.851Z,9.74
2023-05-24T10:15:31.798Z,10.61
2023-05-24T10:16:31.868Z,10.35
2023-05-24T10:17:31.958Z,9.87
2023-05-24T10:18:31.878Z,10.34
2023-05-24T10:19:31.858Z,9.87
2023-05-24T10:20:31.837Z,9.79
2023-05-24T10:21:31.905Z,8.63
2023-05-24T10:22:31.855Z,9.20
2023-05-24T10:23:31.818Z,9.61
2023-05-24T10:25:31.894Z,8.81
2023-05-24T10:26:31.848Z,8.83
2023-05-24T10:27:31.879Z,8.90
2023-05-24T10:28:31.849Z,8.47
2023-05-24T10:30:31.956Z,9.74
2023-05-24T10:31:31.898Z,9.36
2023-05-24T10:32:31.944Z,9.22
2023-05-24T10:33:31.863Z,9.91
2023-05-24T10:34:31.898Z,8.38
2023-05-24T10:35:31.911Z,8.88
2023-05-24T10:36:31.866Z,8.87
2023-05-24T10:37:31.894Z,8.59
2023-05-24T10:38:31.926Z,8.75
2023-05-24T10:39:31.909Z,8.91
2023-05-24T10:40:31.928Z,8.23
2023-05-24T10:41:31.884Z,8.82
2023-05-24T10:43:31.946Z,8.52
2023-05-24T10:44:31.869Z,9.25
2023-05-24T10:45:31.945Z,8.96
2023-05-24T10:46:31.934Z,9.09
2023-05-24T10:47:31.978Z,8.20
2023-05-24T10:48:31.926Z,9.09
2023-05-24T10:49:31.898Z,9.04
2023-05-24T10:50:31.906Z,8.32
2023-05-24T10:51:31.936Z,8.69
2023-05-24T10:52:31.934Z,9.11
2023-05-24T10:53:31.929Z,9.04
2023-05-24T10:54:31.889Z,9.14
2023-05-24T10:55:31.926Z,8.23
2023-05-24T10:58:31.941Z,9.16
2023-05-24T10:59:31.904Z,8.44
2023-05-24T11:00:35.748Z,9.08
2023-05-24T11:01:32.293Z,8.11
2023-05-24T11:02:31.937Z,8.17
2023-05-24T11:03:31.943Z,9.15
2023-05-24T11:04:31.968Z,9.28
2023-05-24T11:05:32.029Z,8.57
2023-05-24T11:06:31.978Z,8.91
2023-05-24T11:07:31.952Z,9.38
2023-05-24T11:08:31.962Z,9.62
2023-05-24T11:09:31.965Z,9.25
2023-05-24T11:10:31.975Z,8.62
2023-05-24T11:11:32.436Z,8.97
2023-05-24T11:12:31.979Z,9.37
2023-05-24T11:13:31.971Z,9.39
2023-05-24T11:14:31.971Z,9.60
2023-05-24T11:15:31.942Z,8.71
2023-05-24T11:16:32.031Z,9.00
2023-05-24T11:17:32.036Z,9.09
2023-05-24T11:18:31.989Z,9.56
2023-05-24T11:19:31.986Z,8.98
2023-05-24T11:20:32.004Z,9.42
2023-05-24T11:21:31.991Z,9.39
2023-05-24T11:22:32.021Z,9.30
2023-05-24T11:24:32.009Z,10.49
2023-05-24T11:25:31.966Z,8.60
2023-05-24T11:26:32.017Z,9.10
2023-05-24T11:27:32.023Z,9.34
2023-05-24T11:28:32.059Z,9.28
2023-05-24T11:29:32.075Z,8.33
2023-05-24T11:31:32.159Z,8.97
2023-05-24T11:32:32.045Z,10.11
2023-05-24T11:33:32.013Z,9.46
2023-05-24T11:34:32.053Z,9.27
2023-05-24T11:35:32.028Z,9.34
2023-05-24T11:36:32.029Z,9.19
2023-05-24T11:38:32.031Z,9.44
2023-05-24T11:39:32.060Z,8.41
2023-05-24T11:41:32.076Z,9.97
2023-05-24T11:42:32.042Z,9.64
2023-05-24T11:43:32.031Z,10.18
2023-05-24T11:44:32.085Z,11.00
2023-05-24T11:45:32.066Z,10.91
2023-05-24T11:46:32.079Z,9.91
2023-05-24T11:47:32.101Z,9.36
2023-05-24T11:48:32.266Z,10.15
2023-05-24T11:50:39.060Z,9.87
2023-05-24T11:51:32.058Z,9.21
2023-05-24T11:53:32.100Z,9.59
2023-05-24T11:54:32.097Z,9.86
2023-05-24T11:56:33.921Z,11.20
2023-05-24T11:57:32.114Z,9.81
2023-05-24T11:58:32.106Z,11.21
2023-05-24T11:59:32.055Z,11.05
2023-05-24T12:00:32.141Z,9.75
2023-05-24T12:01:32.098Z,10.30
2023-05-24T12:02:32.151Z,9.92
2023-05-24T12:03:32.357Z,10.27
2023-05-24T12:04:32.223Z,10.40
2023-05-24T12:05:32.135Z,10.29
2023-05-24T12:06:32.105Z,9.89
2023-05-24T12:07:32.136Z,10.39
2023-05-24T12:08:32.117Z,9.94
2023-05-24T12:09:32.265Z,11.04
2023-05-24T12:10:32.120Z,10.09
2023-05-24T12:11:32.130Z,9.88
2023-05-24T12:12:38.707Z,10.11
2023-05-24T12:13:32.390Z,9.78
2023-05-24T12:14:34.858Z,11.21
2023-05-24T12:15:32.381Z,10.39
2023-05-24T12:16:32.961Z,10.71
2023-05-24T12:17:33.362Z,10.76
2023-05-24T12:18:32.153Z,11.53
2023-05-24T12:19:33.874Z,10.32
2023-05-24T12:20:32.221Z,10.54
2023-05-24T12:21:32.193Z,10.68
2023-05-24T12:22:32.133Z,10.62
2023-05-24T12:23:32.189Z,10.45
2023-05-24T12:24:32.170Z,10.10
2023-05-24T12:25:32.124Z,11.54
2023-05-24T12:26:32.198Z,10.94
2023-05-24T12:27:32.189Z,10.19
2023-05-24T12:28:32.188Z,11.10
2023-05-24T12:29:32.191Z,11.40
2023-05-24T12:30:32.138Z,9.70
2023-05-24T12:31:32.216Z,10.75
2023-05-24T12:32:32.193Z,11.84
2023-05-24T12:33:32.169Z,11.31
2023-05-24T12:34:32.196Z,11.80
2023-05-24T12:35:32.177Z,11.77
2023-05-24T12:36:32.179Z,10.20
2023-05-24T12:37:32.196Z,10.28
2023-05-24T12:38:32.182Z,10.52
2023-05-24T12:40:32.191Z,11.69
2023-05-24T12:41:32.198Z,9.94
2023-05-24T12:42:32.211Z,10.06
2023-05-24T12:43:32.167Z,11.54
2023-05-24T12:44:32.213Z,10.98
2023-05-24T12:46:32.234Z,10.56
2023-05-24T12:47:32.266Z,10.88
2023-05-24T12:48:32.194Z,11.78
2023-05-24T12:49:32.281Z,10.87
2023-05-24T12:50:32.226Z,10.92
2023-05-24T12:51:32.184Z,10.12
2023-05-24T12:52:32.218Z,9.93
2023-05-24T12:53:32.248Z,10.92
2023-05-24T12:54:32.247Z,10.87
2023-05-24T12:55:32.238Z,10.82
2023-05-24T12:56:32.218Z,10.91
2023-05-24T12:57:32.257Z,10.82
2023-05-24T12:58:32.251Z,11.21
2023-05-24T12:59:32.275Z,10.66
2023-05-24T13:00:32.272Z,10.26
2023-05-24T13:01:32.369Z,11.36
2023-05-24T13:02:32.314Z,10.83
2023-05-24T13:03:32.303Z,11.44
2023-05-24T13:04:32.209Z,10.65
2023-05-24T13:05:32.352Z,10.57
2023-05-24T13:06:32.234Z,10.68
2023-05-24T13:07:32.274Z,11.48
2023-05-24T13:08:32.277Z,11.48
2023-05-24T13:09:32.258Z,10.78
2023-05-24T13:10:32.261Z,11.83
2023-05-24T13:11:32.258Z,11.82
2023-05-24T13:12:32.261Z,11.60
2023-05-24T13:13:32.266Z,11.55
2023-05-24T13:14:32.251Z,11.58
2023-05-24T13:15:32.281Z,10.90
2023-05-24T13:16:32.345Z,11.31
2023-05-24T13:17:32.306Z,12.50
2023-05-24T13:18:32.296Z,11.79
2023-05-24T13:19:32.361Z,11.57
2023-05-24T13:21:32.335Z,11.55
2023-05-24T13:22:32.276Z,11.05
2023-05-24T13:23:32.336Z,11.26
2023-05-24T13:25:32.307Z,10.70
2023-05-24T13:26:32.344Z,10.59
2023-05-24T13:27:32.282Z,11.09
2023-05-24T13:28:32.326Z,12.87
2023-05-24T13:29:39.555Z,10.88
2023-05-24T13:31:32.440Z,11.09
2023-05-24T13:32:32.423Z,10.92
2023-05-24T13:34:32.362Z,12.49
2023-05-24T13:35:32.296Z,12.28
2023-05-24T13:36:32.351Z,11.86
2023-05-24T13:37:32.391Z,11.20
2023-05-24T13:38:32.356Z,11.66
2023-05-24T13:39:32.340Z,11.38
2023-05-24T13:40:32.335Z,11.58
2023-05-24T13:41:32.358Z,11.71
2023-05-24T13:42:32.367Z,11.32
2023-05-24T13:43:32.290Z,11.75
2023-05-24T13:44:32.334Z,12.54
2023-05-24T13:45:32.362Z,11.88
2023-05-24T13:46:32.463Z,12.14
2023-05-24T13:47:39.813Z,11.95
2023-05-24T13:48:32.400Z,11.88
2023-05-24T13:49:32.378Z,12.54
2023-05-24T13:51:32.384Z,11.98
2023-05-24T13:52:32.416Z,12.03
2023-05-24T13:53:32.380Z,11.63
2023-05-24T13:54:32.405Z,12.35
2023-05-24T13:55:32.415Z,12.72
2023-05-24T13:56:32.444Z,11.56
2023-05-24T13:57:43.518Z,11.44
2023-05-24T13:58:32.404Z,13.65
2023-05-24T13:59:32.417Z,12.81
2023-05-24T14:01:32.508Z,12.46
2023-05-24T14:02:32.471Z,12.73
2023-05-24T14:03:32.428Z,12.99
2023-05-24T14:04:32.477Z,11.60
2023-05-24T14:05:32.471Z,11.34
2023-05-24T14:06:32.420Z,12.84
2023-05-24T14:07:32.459Z,11.89
2023-05-24T14:08:32.390Z,12.23
2023-05-24T14:09:32.409Z,12.10
2023-05-24T14:10:32.447Z,11.61
2023-05-24T14:11:32.447Z,11.15
2023-05-24T14:12:32.473Z,10.83
2023-05-24T14:15:32.481Z,10.62
2023-05-24T14:16:32.541Z,11.69
2023-05-24T14:19:32.437Z,9.92
2023-05-24T14:20:32.485Z,11.10
2023-05-24T14:21:32.577Z,10.38
2023-05-24T14:22:32.414Z,10.48